sensor_id;sensor_type;location;lat;lon;timestamp;pressure;altitude;pressure_sealevel;temperature;humidity
11605;BME280;5858;43.076;25.626;2023-06-14T00:01:52;98771.47;;;18.59;92.94
11605;BME280;5858;43.076;25.626;2023-06-14T00:04:21;98910.97;;;19.57;92.82
11605;BME280;5858;43.076;25.626;2023-06-14T00:06:51;98907.44;;;19.40;93.79
11605;BME280;5858;43.076;25.626;2023-06-14T00:09:21;98695.81;;;18.19;93.47
11605;BME280;5858;43.076;25.626;2023-06-14T00:11:51;98902.97;;;19.50;93.27
11605;BME280;5858;43.076;25.626;2023-06-14T00:14:19;98956.19;;;19.90;93.22
11605;BME280;5858;43.076;25.626;2023-06-14T00:16:48;98769.59;;;18.60;92.52
11605;BME280;5858;43.076;25.626;2023-06-14T00:19:15;98871.63;;;19.21;92.73
11605;BME280;5858;43.076;25.626;2023-06-14T00:21:42;98896.97;;;19.48;93.25
11605;BME280;5858;43.076;25.626;2023-06-14T00:24:09;98775.44;;;18.68;92.87
11605;BME280;5858;43.076;25.626;2023-06-14T00:26:38;98891.38;;;19.38;92.91
11605;BME280;5858;43.076;25.626;2023-06-14T00:29:06;98991.41;;;19.85;93.24
11605;BME280;5858;43.076;25.626;2023-06-14T00:31:33;98827.78;;;18.91;93.27
11605;BME280;5858;43.076;25.626;2023-06-14T00:34:02;98974.53;;;19.83;93.60
11605;BME280;5858;43.076;25.626;2023-06-14T00:36:29;98893.22;;;19.33;93.33
11605;BME280;5858;43.076;25.626;2023-06-14T00:38:57;98804.88;;;18.81;93.44
11605;BME280;5858;43.076;25.626;2023-06-14T00:41:25;98722.81;;;18.31;93.84
11605;BME280;5858;43.076;25.626;2023-06-14T00:43:52;98953.75;;;19.72;93.99
11605;BME280;5858;43.076;25.626;2023-06-14T00:46:22;98857.16;;;19.15;94.25
11605;BME280;5858;43.076;25.626;2023-06-14T00:48:50;98944.22;;;19.69;94.22
11605;BME280;5858;43.076;25.626;2023-06-14T00:51:20;98907.03;;;19.31;94.93
11605;BME280;5858;43.076;25.626;2023-06-14T00:53:48;98852.28;;;18.96;95.24
11605;BME280;5858;43.076;25.626;2023-06-14T00:56:16;98943.22;;;19.54;95.42
11605;BME280;5858;43.076;25.626;2023-06-14T00:58:46;98942.53;;;19.30;96.42
11605;BME280;5858;43.076;25.626;2023-06-14T01:01:23;98938.00;;;19.35;96.20
11605;BME280;5858;43.076;25.626;2023-06-14T01:03:51;98901.25;;;19.06;95.89
11605;BME280;5858;43.076;25.626;2023-06-14T01:06:23;98948.91;;;19.18;96.96
11605;BME280;5858;43.076;25.626;2023-06-14T01:09:03;98862.47;;;18.55;97.63
11605;BME280;5858;43.076;25.626;2023-06-14T01:11:40;98932.25;;;18.93;99.01
11605;BME280;5858;43.076;25.626;2023-06-14T01:14:12;98790.06;;;17.88;99.48
11605;BME280;5858;43.076;25.626;2023-06-14T01:16:40;98773.34;;;17.63;100.00
11605;BME280;5858;43.076;25.626;2023-06-14T01:19:10;98941.16;;;18.77;100.00
11605;BME280;5858;43.076;25.626;2023-06-14T01:21:44;98837.44;;;18.03;100.00
11605;BME280;5858;43.076;25.626;2023-06-14T01:24:12;98777.44;;;17.66;100.00
11605;BME280;5858;43.076;25.626;2023-06-14T01:26:52;98882.19;;;18.22;100.00
11605;BME280;5858;43.076;25.626;2023-06-14T01:29:22;98920.53;;;18.31;100.00
11605;BME280;5858;43.076;25.626;2023-06-14T01:31:50;98890.38;;;18.10;100.00
11605;BME280;5858;43.076;25.626;2023-06-14T01:34:18;98947.81;;;18.41;100.00
11605;BME280;5858;43.076;25.626;2023-06-14T01:36:45;98885.06;;;18.15;100.00
11605;BME280;5858;43.076;25.626;2023-06-14T01:39:15;98810.06;;;17.59;100.00
11605;BME280;5858;43.076;25.626;2023-06-14T01:41:42;98898.78;;;18.25;100.00
11605;BME280;5858;43.076;25.626;2023-06-14T01:44:12;98816.66;;;17.91;100.00
11605;BME280;5858;43.076;25.626;2023-06-14T01:46:42;98812.69;;;17.82;100.00
11605;BME280;5858;43.076;25.626;2023-06-14T01:49:09;98926.28;;;18.63;100.00
11605;BME280;5858;43.076;25.626;2023-06-14T01:51:37;98822.38;;;17.95;100.00
11605;BME280;5858;43.076;25.626;2023-06-14T01:54:04;98670.09;;;16.97;100.00
11605;BME280;5858;43.076;25.626;2023-06-14T01:56:33;98866.75;;;18.06;100.00
11605;BME280;5858;43.076;25.626;2023-06-14T01:59:00;98879.56;;;18.10;100.00
11605;BME280;5858;43.076;25.626;2023-06-14T02:01:27;98939.41;;;18.54;100.00
11605;BME280;5858;43.076;25.626;2023-06-14T02:03:54;98846.75;;;17.95;100.00
11605;BME280;5858;43.076;25.626;2023-06-14T02:06:21;98861.47;;;17.99;100.00
11605;BME280;5858;43.076;25.626;2023-06-14T02:08:48;98857.66;;;18.12;100.00
11605;BME280;5858;43.076;25.626;2023-06-14T02:11:15;98771.78;;;17.39;100.00
11605;BME280;5858;43.076;25.626;2023-06-14T02:13:44;98951.63;;;18.56;100.00
11605;BME280;5858;43.076;25.626;2023-06-14T02:16:11;98881.28;;;18.16;100.00
11605;BME280;5858;43.076;25.626;2023-06-14T02:18:40;98936.34;;;18.50;100.00
11605;BME280;5858;43.076;25.626;2023-06-14T02:21:08;98823.03;;;17.85;100.00
11605;BME280;5858;43.076;25.626;2023-06-14T02:23:35;98918.75;;;18.36;100.00
11605;BME280;5858;43.076;25.626;2023-06-14T02:26:02;98938.81;;;18.52;100.00
11605;BME280;5858;43.076;25.626;2023-06-14T02:28:29;98943.25;;;18.58;100.00
11605;BME280;5858;43.076;25.626;2023-06-14T02:30:58;98895.91;;;18.32;100.00
11605;BME280;5858;43.076;25.626;2023-06-14T02:33:26;98952.34;;;18.64;100.00
11605;BME280;5858;43.076;25.626;2023-06-14T02:35:53;98887.59;;;17.93;100.00
11605;BME280;5858;43.076;25.626;2023-06-14T02:38:21;98949.88;;;18.62;100.00
11605;BME280;5858;43.076;25.626;2023-06-14T02:40:49;98872.25;;;18.11;100.00
11605;BME280;5858;43.076;25.626;2023-06-14T02:43:16;98892.16;;;18.05;100.00
11605;BME280;5858;43.076;25.626;2023-06-14T02:45:44;98756.75;;;17.31;100.00
11605;BME280;5858;43.076;25.626;2023-06-14T02:48:12;98705.31;;;17.14;100.00
11605;BME280;5858;43.076;25.626;2023-06-14T02:50:39;98975.59;;;18.76;100.00
11605;BME280;5858;43.076;25.626;2023-06-14T02:53:06;98947.94;;;18.46;100.00
11605;BME280;5858;43.076;25.626;2023-06-14T02:55:33;98858.84;;;17.64;100.00
11605;BME280;5858;43.076;25.626;2023-06-14T02:58:04;98905.25;;;18.24;100.00
11605;BME280;5858;43.076;25.626;2023-06-14T03:00:31;98929.19;;;18.44;99.91
11605;BME280;5858;43.076;25.626;2023-06-14T03:03:00;98871.34;;;17.93;100.00
11605;BME280;5858;43.076;25.626;2023-06-14T03:05:29;98989.06;;;18.71;100.00
11605;BME280;5858;43.076;25.626;2023-06-14T03:07:56;98943.72;;;18.67;100.00
11605;BME280;5858;43.076;25.626;2023-06-14T03:10:23;98955.22;;;18.91;100.00
11605;BME280;5858;43.076;25.626;2023-06-14T03:12:54;98958.69;;;19.03;98.15
11605;BME280;5858;43.076;25.626;2023-06-14T03:15:21;98932.63;;;19.02;97.66
11605;BME280;5858;43.076;25.626;2023-06-14T03:17:50;98944.16;;;18.92;98.28
11605;BME280;5858;43.076;25.626;2023-06-14T03:20:19;98922.19;;;19.10;96.46
11605;BME280;5858;43.076;25.626;2023-06-14T03:22:47;98954.16;;;19.08;96.46
11605;BME280;5858;43.076;25.626;2023-06-14T03:25:14;98922.59;;;18.85;96.90
11605;BME280;5858;43.076;25.626;2023-06-14T03:27:42;98973.88;;;19.21;97.46
11605;BME280;5858;43.076;25.626;2023-06-14T03:30:09;99026.41;;;19.31;97.26
11605;BME280;5858;43.076;25.626;2023-06-14T03:32:36;98968.06;;;18.95;97.93
11605;BME280;5858;43.076;25.626;2023-06-14T03:35:04;99002.41;;;19.23;98.21
11605;BME280;5858;43.076;25.626;2023-06-14T03:37:31;98938.38;;;18.72;98.16
11605;BME280;5858;43.076;25.626;2023-06-14T03:40:00;98980.88;;;19.16;97.30
11605;BME280;5858;43.076;25.626;2023-06-14T03:42:31;98966.16;;;19.29;95.86
11605;BME280;5858;43.076;25.626;2023-06-14T03:44:58;98967.81;;;19.13;96.83
11605;BME280;5858;43.076;25.626;2023-06-14T03:47:25;99018.66;;;19.73;95.44
11605;BME280;5858;43.076;25.626;2023-06-14T03:49:52;99018.47;;;19.80;94.75
11605;BME280;5858;43.076;25.626;2023-06-14T03:52:19;98789.78;;;18.35;93.92
11605;BME280;5858;43.076;25.626;2023-06-14T03:54:47;99027.25;;;20.04;94.35
11605;BME280;5858;43.076;25.626;2023-06-14T03:57:16;98871.34;;;19.39;92.72
11605;BME280;5858;43.076;25.626;2023-06-14T03:59:43;98779.16;;;19.01;92.15
11605;BME280;5858;43.076;25.626;2023-06-14T04:02:10;98963.28;;;20.18;91.10
11605;BME280;5858;43.076;25.626;2023-06-14T04:04:40;98913.41;;;19.80;90.44
11605;BME280;5858;43.076;25.626;2023-06-14T04:07:09;98939.56;;;19.48;92.50
11605;BME280;5858;43.076;25.626;2023-06-14T04:09:37;98952.56;;;19.46;94.18
11605;BME280;5858;43.076;25.626;2023-06-14T04:12:07;98936.25;;;19.07;95.82
11605;BME280;5858;43.076;25.626;2023-06-14T04:14:37;98966.72;;;19.31;96.35
11605;BME280;5858;43.076;25.626;2023-06-14T04:17:04;98952.75;;;19.23;96.06
11605;BME280;5858;43.076;25.626;2023-06-14T04:19:31;98962.56;;;19.07;97.47
11605;BME280;5858;43.076;25.626;2023-06-14T04:21:59;99027.34;;;19.54;97.55
11605;BME280;5858;43.076;25.626;2023-06-14T04:24:26;99023.44;;;19.49;97.97
11605;BME280;5858;43.076;25.626;2023-06-14T04:26:58;98858.72;;;18.44;97.30
11605;BME280;5858;43.076;25.626;2023-06-14T04:29:26;98916.28;;;18.63;98.16
11605;BME280;5858;43.076;25.626;2023-06-14T04:31:57;98903.03;;;18.50;97.45
11605;BME280;5858;43.076;25.626;2023-06-14T04:34:26;99004.38;;;19.11;98.10
11605;BME280;5858;43.076;25.626;2023-06-14T04:36:58;99029.44;;;19.35;97.93
11605;BME280;5858;43.076;25.626;2023-06-14T04:39:26;98929.19;;;18.73;98.12
11605;BME280;5858;43.076;25.626;2023-06-14T04:41:56;99040.78;;;19.15;99.05
11605;BME280;5858;43.076;25.626;2023-06-14T04:44:26;98923.66;;;18.39;99.02
11605;BME280;5858;43.076;25.626;2023-06-14T04:47:01;98766.09;;;17.52;98.79
11605;BME280;5858;43.076;25.626;2023-06-14T04:49:34;98981.66;;;18.83;98.55
11605;BME280;5858;43.076;25.626;2023-06-14T04:52:01;98935.16;;;18.75;98.04
11605;BME280;5858;43.076;25.626;2023-06-14T04:54:36;99068.69;;;19.44;98.53
11605;BME280;5858;43.076;25.626;2023-06-14T04:58:20;99060.63;;;19.66;96.83
11605;BME280;5858;43.076;25.626;2023-06-14T05:01:27;98810.28;;;17.98;96.47
11605;BME280;5858;43.076;25.626;2023-06-14T05:07:54;98852.19;;;18.57;94.55
11605;BME280;5858;43.076;25.626;2023-06-14T05:14:32;98972.72;;;19.33;93.29
11605;BME280;5858;43.076;25.626;2023-06-14T05:18:40;99085.28;;;19.98;93.38
11605;BME280;5858;43.076;25.626;2023-06-14T05:20:56;99079.34;;;20.01;92.89
11605;BME280;5858;43.076;25.626;2023-06-14T05:23:47;99038.50;;;19.74;92.92
11605;BME280;5858;43.076;25.626;2023-06-14T05:26:30;98851.53;;;18.50;92.19
11605;BME280;5858;43.076;25.626;2023-06-14T05:29:07;99032.31;;;19.78;92.13
11605;BME280;5858;43.076;25.626;2023-06-14T05:31:40;98798.16;;;18.00;92.68
11605;BME280;5858;43.076;25.626;2023-06-14T05:37:52;99034.63;;;19.70;92.20
11605;BME280;5858;43.076;25.626;2023-06-14T05:40:31;99109.38;;;20.11;93.14
11605;BME280;5858;43.076;25.626;2023-06-14T05:43:18;99102.75;;;20.24;93.04
11605;BME280;5858;43.076;25.626;2023-06-14T05:46:10;98884.56;;;18.80;92.89
11605;BME280;5858;43.076;25.626;2023-06-14T05:48:58;98979.28;;;19.37;93.15
11605;BME280;5858;43.076;25.626;2023-06-14T05:51:45;98889.06;;;18.92;92.14
11605;BME280;5858;43.076;25.626;2023-06-14T05:54:42;98993.03;;;19.47;92.16
11605;BME280;5858;43.076;25.626;2023-06-14T06:01:16;98865.88;;;18.34;91.04
11605;BME280;5858;43.076;25.626;2023-06-14T06:04:06;98972.97;;;19.15;92.68
11605;BME280;5858;43.076;25.626;2023-06-14T06:06:53;99135.94;;;20.26;92.92
11605;BME280;5858;43.076;25.626;2023-06-14T06:09:52;99097.25;;;20.19;92.17
11605;BME280;5858;43.076;25.626;2023-06-14T06:28:45;98893.53;;;19.97;82.19
11605;BME280;5858;43.076;25.626;2023-06-14T06:31:37;98896.19;;;19.92;82.06
11605;BME280;5858;43.076;25.626;2023-06-14T06:34:28;99063.75;;;20.79;81.48
11605;BME280;5858;43.076;25.626;2023-06-14T06:50:19;99145.69;;;22.27;79.52
11605;BME280;5858;43.076;25.626;2023-06-14T06:52:59;99136.28;;;22.60;78.21
11605;BME280;5858;43.076;25.626;2023-06-14T06:55:45;98995.09;;;22.05;75.82
11605;BME280;5858;43.076;25.626;2023-06-14T06:58:21;98911.34;;;21.80;75.21
11605;BME280;5858;43.076;25.626;2023-06-14T07:04:40;99045.31;;;22.81;71.99
11605;BME280;5858;43.076;25.626;2023-06-14T07:07:19;98914.53;;;22.24;71.35
11605;BME280;5858;43.076;25.626;2023-06-14T07:10:35;99010.66;;;22.92;70.40
11605;BME280;5858;43.076;25.626;2023-06-14T07:17:11;98908.88;;;23.02;67.23
11605;BME280;5858;43.076;25.626;2023-06-14T07:26:55;99093.47;;;24.74;64.35
11605;BME280;5858;43.076;25.626;2023-06-14T07:30:01;99121.97;;;25.22;59.65
11605;BME280;5858;43.076;25.626;2023-06-14T07:32:39;98961.66;;;24.57;58.95
11605;BME280;5858;43.076;25.626;2023-06-14T07:35:23;99112.47;;;25.49;61.68
11605;BME280;5858;43.076;25.626;2023-06-14T07:41:14;98984.66;;;25.34;56.15
11605;BME280;5858;43.076;25.626;2023-06-14T07:44:01;98855.81;;;24.52;54.89
11605;BME280;5858;43.076;25.626;2023-06-14T07:46:39;98899.59;;;24.52;56.68
11605;BME280;5858;43.076;25.626;2023-06-14T07:49:09;99006.81;;;25.37;57.68
11605;BME280;5858;43.076;25.626;2023-06-14T07:52:02;98924.09;;;25.06;53.28
11605;BME280;5858;43.076;25.626;2023-06-14T07:54:49;99108.84;;;26.69;53.85
11605;BME280;5858;43.076;25.626;2023-06-14T07:57:22;98984.75;;;26.06;53.93
11605;BME280;5858;43.076;25.626;2023-06-14T08:03:28;98936.16;;;26.11;51.93
11605;BME280;5858;43.076;25.626;2023-06-14T08:09:45;99132.06;;;27.76;49.55
11605;BME280;5858;43.076;25.626;2023-06-14T08:29:34;98933.63;;;26.90;46.10
11605;BME280;5858;43.076;25.626;2023-06-14T08:35:46;99124.50;;;28.46;48.13
11605;BME280;5858;43.076;25.626;2023-06-14T09:22:13;99032.50;;;27.60;46.28
11605;BME280;5858;43.076;25.626;2023-06-14T09:24:44;98900.50;;;26.30;46.49
11605;BME280;5858;43.076;25.626;2023-06-14T09:27:22;98895.50;;;26.56;47.97
11605;BME280;5858;43.076;25.626;2023-06-14T09:30:02;98958.03;;;26.91;45.50
11605;BME280;5858;43.076;25.626;2023-06-14T09:32:37;98986.59;;;27.28;45.36
11605;BME280;5858;43.076;25.626;2023-06-14T09:36:14;99111.16;;;27.61;44.83
11605;BME280;5858;43.076;25.626;2023-06-14T09:39:03;98876.22;;;25.57;45.14
11605;BME280;5858;43.076;25.626;2023-06-14T09:41:58;99135.44;;;27.16;44.10
11605;BME280;5858;43.076;25.626;2023-06-14T09:48:12;99115.22;;;27.07;45.00
11605;BME280;5858;43.076;25.626;2023-06-14T09:50:45;99114.31;;;27.31;45.58
11605;BME280;5858;43.076;25.626;2023-06-14T09:53:33;99016.88;;;27.09;44.37
11605;BME280;5858;43.076;25.626;2023-06-14T09:56:20;98986.63;;;27.42;43.39
11605;BME280;5858;43.076;25.626;2023-06-14T09:58:59;99062.88;;;28.01;43.34
11605;BME280;5858;43.076;25.626;2023-06-14T10:01:57;98896.09;;;26.53;44.12
11605;BME280;5858;43.076;25.626;2023-06-14T10:05:02;98897.72;;;26.86;43.09
11605;BME280;5858;43.076;25.626;2023-06-14T10:08:10;99091.88;;;27.94;45.72
11605;BME280;5858;43.076;25.626;2023-06-14T10:11:01;99090.41;;;27.50;45.87
11605;BME280;5858;43.076;25.626;2023-06-14T11:26:48;98885.19;;;27.59;40.46
11605;BME280;5858;43.076;25.626;2023-06-14T11:32:37;99032.00;;;28.45;39.93
11605;BME280;5858;43.076;25.626;2023-06-14T11:46:15;98878.06;;;27.99;40.74
11605;BME280;5858;43.076;25.626;2023-06-14T11:49:14;98840.47;;;27.81;41.09
11605;BME280;5858;43.076;25.626;2023-06-14T11:51:58;99052.09;;;29.09;41.22
11605;BME280;5858;43.076;25.626;2023-06-14T12:18:39;98831.31;;;26.84;39.79
11605;BME280;5858;43.076;25.626;2023-06-14T12:21:12;98942.03;;;27.64;39.11
11605;BME280;5858;43.076;25.626;2023-06-14T12:24:11;98992.34;;;27.92;38.45
11605;BME280;5858;43.076;25.626;2023-06-14T14:09:05;98953.41;;;29.73;40.57
11605;BME280;5858;43.076;25.626;2023-06-14T14:15:16;98760.22;;;28.60;38.35
11605;BME280;5858;43.076;25.626;2023-06-14T14:48:16;98954.25;;;28.12;42.77
11605;BME280;5858;43.076;25.626;2023-06-14T14:53:59;98860.50;;;27.26;43.59
11605;BME280;5858;43.076;25.626;2023-06-14T15:02:09;98733.06;;;26.02;44.52
11605;BME280;5858;43.076;25.626;2023-06-14T15:09:55;98748.72;;;26.02;44.59
11605;BME280;5858;43.076;25.626;2023-06-14T15:47:34;98827.75;;;27.16;44.32
11605;BME280;5858;43.076;25.626;2023-06-14T15:57:12;98936.81;;;27.62;45.15
11605;BME280;5858;43.076;25.626;2023-06-14T15:59:53;98823.56;;;26.73;45.75
11605;BME280;5858;43.076;25.626;2023-06-14T16:36:44;98764.84;;;25.23;48.73
11605;BME280;5858;43.076;25.626;2023-06-14T16:39:34;99002.16;;;26.62;49.46
11605;BME280;5858;43.076;25.626;2023-06-14T16:42:17;98817.78;;;25.61;48.88
11605;BME280;5858;43.076;25.626;2023-06-14T16:44:55;98994.00;;;26.57;48.62
11605;BME280;5858;43.076;25.626;2023-06-14T17:14:32;98880.69;;;25.24;52.13
11605;BME280;5858;43.076;25.626;2023-06-14T17:21:02;98788.38;;;24.37;54.26
11605;BME280;5858;43.076;25.626;2023-06-14T17:24:26;98872.09;;;24.72;55.70
11605;BME280;5858;43.076;25.626;2023-06-14T17:27:22;98744.94;;;23.97;55.77
11605;BME280;5858;43.076;25.626;2023-06-14T17:47:15;98720.38;;;23.42;61.11
11605;BME280;5858;43.076;25.626;2023-06-14T17:49:59;98892.03;;;24.39;61.96
11605;BME280;5858;43.076;25.626;2023-06-14T18:18:51;99038.56;;;24.50;68.62
11605;BME280;5858;43.076;25.626;2023-06-14T18:21:38;98867.34;;;23.30;68.85
11605;BME280;5858;43.076;25.626;2023-06-14T18:24:06;99044.34;;;24.43;69.44
11605;BME280;5858;43.076;25.626;2023-06-14T18:26:39;99055.38;;;24.28;70.22
11605;BME280;5858;43.076;25.626;2023-06-14T18:29:09;98874.19;;;23.12;70.38
11605;BME280;5858;43.076;25.626;2023-06-14T18:31:36;98895.19;;;23.17;70.45
11605;BME280;5858;43.076;25.626;2023-06-14T18:34:29;98993.94;;;23.90;70.18
11605;BME280;5858;43.076;25.626;2023-06-14T18:37:01;99001.34;;;23.79;70.67
11605;BME280;5858;43.076;25.626;2023-06-14T18:39:38;99063.03;;;24.16;70.44
11605;BME280;5858;43.076;25.626;2023-06-14T18:42:06;98842.03;;;22.84;70.52
11605;BME280;5858;43.076;25.626;2023-06-14T18:44:50;99016.38;;;23.87;70.24
11605;BME280;5858;43.076;25.626;2023-06-14T18:47:24;99024.56;;;23.82;69.90
11605;BME280;5858;43.076;25.626;2023-06-14T18:49:56;98795.41;;;22.40;69.83
11605;BME280;5858;43.076;25.626;2023-06-14T18:52:30;99107.59;;;24.11;70.70
11605;BME280;5858;43.076;25.626;2023-06-14T18:55:21;98855.94;;;22.72;70.00
11605;BME280;5858;43.076;25.626;2023-06-14T18:57:50;99095.28;;;24.09;70.45
11605;BME280;5858;43.076;25.626;2023-06-14T19:00:24;99076.72;;;24.01;70.44
11605;BME280;5858;43.076;25.626;2023-06-14T19:06:54;98997.56;;;23.14;71.28
11605;BME280;5858;43.076;25.626;2023-06-14T19:10:03;99059.28;;;23.26;71.74
11605;BME280;5858;43.076;25.626;2023-06-14T19:12:53;98919.47;;;22.57;71.87
11605;BME280;5858;43.076;25.626;2023-06-14T19:15:53;98879.63;;;22.26;72.25
11605;BME280;5858;43.076;25.626;2023-06-14T19:19:36;98885.03;;;22.16;72.77
11605;BME280;5858;43.076;25.626;2023-06-14T19:22:17;99106.81;;;23.60;71.85
11605;BME280;5858;43.076;25.626;2023-06-14T19:25:49;99101.34;;;23.30;72.07
11605;BME280;5858;43.076;25.626;2023-06-14T19:35:11;98893.41;;;21.94;73.37
11605;BME280;5858;43.076;25.626;2023-06-14T19:37:59;98955.44;;;22.39;74.52
11605;BME280;5858;43.076;25.626;2023-06-14T19:40:51;99124.81;;;23.41;74.62
11605;BME280;5858;43.076;25.626;2023-06-14T19:43:32;99005.19;;;22.82;74.48
11605;BME280;5858;43.076;25.626;2023-06-14T19:46:25;99043.34;;;22.77;74.94
11605;BME280;5858;43.076;25.626;2023-06-14T19:49:03;99063.88;;;22.95;75.61
11605;BME280;5858;43.076;25.626;2023-06-14T19:51:44;99027.72;;;22.57;76.89
11605;BME280;5858;43.076;25.626;2023-06-14T19:54:18;98953.16;;;22.16;76.52
11605;BME280;5858;43.076;25.626;2023-06-14T19:56:50;99108.91;;;23.02;77.13
11605;BME280;5858;43.076;25.626;2023-06-14T19:59:28;99119.53;;;22.93;77.56
11605;BME280;5858;43.076;25.626;2023-06-14T20:02:01;98825.19;;;21.11;78.10
11605;BME280;5858;43.076;25.626;2023-06-14T20:04:49;99021.88;;;22.23;78.88
11605;BME280;5858;43.076;25.626;2023-06-14T20:07:29;99006.00;;;22.05;80.16
11605;BME280;5858;43.076;25.626;2023-06-14T20:10:09;99065.06;;;22.46;79.87
11605;BME280;5858;43.076;25.626;2023-06-14T20:12:44;98873.84;;;21.02;81.55
11605;BME280;5858;43.076;25.626;2023-06-14T20:15:15;99100.78;;;22.50;82.11
11605;BME280;5858;43.076;25.626;2023-06-14T20:17:44;99100.44;;;22.31;84.38
11605;BME280;5858;43.076;25.626;2023-06-14T20:20:19;99002.72;;;21.60;84.54
11605;BME280;5858;43.076;25.626;2023-06-14T20:22:47;98951.00;;;21.23;84.63
11605;BME280;5858;43.076;25.626;2023-06-14T20:25:32;98879.50;;;20.59;85.21
11605;BME280;5858;43.076;25.626;2023-06-14T20:28:06;99076.47;;;21.91;85.26
11605;BME280;5858;43.076;25.626;2023-06-14T20:30:52;99100.38;;;22.21;85.43
11605;BME280;5858;43.076;25.626;2023-06-14T20:33:20;99051.66;;;21.87;85.85
11605;BME280;5858;43.076;25.626;2023-06-14T20:35:48;98876.03;;;20.68;85.61
11605;BME280;5858;43.076;25.626;2023-06-14T20:38:15;98915.66;;;20.91;85.63
11605;BME280;5858;43.076;25.626;2023-06-14T20:40:47;98913.75;;;20.92;85.81
11605;BME280;5858;43.076;25.626;2023-06-14T20:43:18;98922.56;;;21.04;85.46
11605;BME280;5858;43.076;25.626;2023-06-14T20:45:46;99102.53;;;22.19;85.99
11605;BME280;5858;43.076;25.626;2023-06-14T20:48:14;98922.00;;;21.02;85.37
11605;BME280;5858;43.076;25.626;2023-06-14T20:50:42;99102.22;;;22.10;86.41
11605;BME280;5858;43.076;25.626;2023-06-14T20:53:12;98919.53;;;21.00;85.76
11605;BME280;5858;43.076;25.626;2023-06-14T20:55:43;99050.84;;;21.87;85.48
11605;BME280;5858;43.076;25.626;2023-06-14T20:58:13;98891.16;;;20.86;85.11
11605;BME280;5858;43.076;25.626;2023-06-14T21:00:42;99026.44;;;21.65;85.32
11605;BME280;5858;43.076;25.626;2023-06-14T21:03:10;99042.78;;;21.65;85.74
11605;BME280;5858;43.076;25.626;2023-06-14T21:05:40;99025.56;;;21.54;86.38
11605;BME280;5858;43.076;25.626;2023-06-14T21:08:12;99097.78;;;21.99;86.98
11605;BME280;5858;43.076;25.626;2023-06-14T21:10:42;98966.00;;;20.94;88.46
11605;BME280;5858;43.076;25.626;2023-06-14T21:13:12;99101.19;;;21.79;88.53
11605;BME280;5858;43.076;25.626;2023-06-14T21:15:40;98977.25;;;20.75;89.64
11605;BME280;5858;43.076;25.626;2023-06-14T21:18:07;99020.16;;;20.95;90.50
11605;BME280;5858;43.076;25.626;2023-06-14T21:20:36;99052.75;;;21.22;89.74
11605;BME280;5858;43.076;25.626;2023-06-14T21:23:03;99078.34;;;21.21;90.72
11605;BME280;5858;43.076;25.626;2023-06-14T21:25:32;99063.22;;;21.03;90.46
11605;BME280;5858;43.076;25.626;2023-06-14T21:28:01;99074.22;;;21.19;90.55
11605;BME280;5858;43.076;25.626;2023-06-14T21:30:35;98957.13;;;20.45;90.44
11605;BME280;5858;43.076;25.626;2023-06-14T21:33:04;99000.47;;;20.83;90.15
11605;BME280;5858;43.076;25.626;2023-06-14T21:35:32;98860.88;;;19.70;92.20
11605;BME280;5858;43.076;25.626;2023-06-14T21:37:59;98962.81;;;20.43;91.24
11605;BME280;5858;43.076;25.626;2023-06-14T21:40:27;98980.84;;;20.32;92.74
11605;BME280;5858;43.076;25.626;2023-06-14T21:42:55;98957.00;;;20.12;92.73
11605;BME280;5858;43.076;25.626;2023-06-14T21:45:25;99105.03;;;20.97;93.66
11605;BME280;5858;43.076;25.626;2023-06-14T21:47:57;98973.16;;;20.24;93.58
11605;BME280;5858;43.076;25.626;2023-06-14T21:50:24;99036.97;;;20.65;93.35
11605;BME280;5858;43.076;25.626;2023-06-14T21:53:00;99095.56;;;21.00;93.35
11605;BME280;5858;43.076;25.626;2023-06-14T21:55:27;98935.47;;;20.06;93.31
11605;BME280;5858;43.076;25.626;2023-06-14T21:57:55;99023.28;;;20.55;94.37
11605;BME280;5858;43.076;25.626;2023-06-14T22:00:23;98992.81;;;20.53;92.90
11605;BME280;5858;43.076;25.626;2023-06-14T22:02:50;99002.91;;;20.58;92.08
11605;BME280;5858;43.076;25.626;2023-06-14T22:05:20;98968.47;;;20.20;93.48
11605;BME280;5858;43.076;25.626;2023-06-14T22:07:47;99041.59;;;20.65;92.95
11605;BME280;5858;43.076;25.626;2023-06-14T22:10:16;99114.50;;;20.90;93.89
11605;BME280;5858;43.076;25.626;2023-06-14T22:12:45;99057.34;;;20.63;94.08
11605;BME280;5858;43.076;25.626;2023-06-14T22:15:15;99035.44;;;20.48;94.03
11605;BME280;5858;43.076;25.626;2023-06-14T22:17:42;99079.00;;;20.80;94.11
11605;BME280;5858;43.076;25.626;2023-06-14T22:20:11;98990.88;;;20.32;93.56
11605;BME280;5858;43.076;25.626;2023-06-14T22:22:40;98872.50;;;19.27;93.56
11605;BME280;5858;43.076;25.626;2023-06-14T22:25:11;98985.09;;;20.01;93.73
11605;BME280;5858;43.076;25.626;2023-06-14T22:28:04;99090.34;;;20.50;95.32
11605;BME280;5858;43.076;25.626;2023-06-14T22:30:39;98964.69;;;19.77;95.22
11605;BME280;5858;43.076;25.626;2023-06-14T22:33:09;99087.50;;;20.61;94.55
11605;BME280;5858;43.076;25.626;2023-06-14T22:35:37;98833.47;;;18.89;95.49
11605;BME280;5858;43.076;25.626;2023-06-14T22:38:06;99089.22;;;20.46;95.91
11605;BME280;5858;43.076;25.626;2023-06-14T22:40:33;99076.78;;;20.33;96.52
11605;BME280;5858;43.076;25.626;2023-06-14T22:43:02;99033.44;;;19.99;96.54
11605;BME280;5858;43.076;25.626;2023-06-14T22:45:30;99043.34;;;20.10;96.45
11605;BME280;5858;43.076;25.626;2023-06-14T22:47:58;99102.56;;;20.30;96.96
11605;BME280;5858;43.076;25.626;2023-06-14T22:50:25;99083.28;;;20.32;97.06
11605;BME280;5858;43.076;25.626;2023-06-14T22:52:52;98835.53;;;18.48;98.30
11605;BME280;5858;43.076;25.626;2023-06-14T22:55:21;99082.34;;;20.21;97.41
11605;BME280;5858;43.076;25.626;2023-06-14T22:57:51;98829.38;;;18.70;95.89
11605;BME280;5858;43.076;25.626;2023-06-14T23:00:19;98966.31;;;19.56;96.17
11605;BME280;5858;43.076;25.626;2023-06-14T23:02:46;99006.22;;;19.77;96.21